NCAR-RAP Real-Time Weather Data

Output produced by METARs form (25 June 2022  04:43 UTC)
found at http://weather.rap.ucar.edu/surface/
 
KJKL 250353Z AUTO 00000KT 10SM CLR 23/13 A3008 RMK AO2 SLP169 T02330128
KJKL 250253Z AUTO 00000KT 10SM CLR 24/13 A3008 RMK AO2 SLP168 T02390133 53014
KJKL 250153Z AUTO 00000KT 10SM CLR 25/14 A3006 RMK AO2 SLP162 T02500139
KJKL 250053Z AUTO 00000KT 10SM CLR 26/16 A3005 RMK AO2 SLP159 T02560156
KJKL 242353Z AUTO 00000KT 10SM CLR 28/17 A3004 RMK AO2 SLP155 T02780167 10322 20278 53000
KJKL 242253Z AUTO 00000KT 10SM CLR 29/16 A3004 RMK AO2 SLP155 T02890161
KJKL 242153Z AUTO 00000KT 10SM CLR 31/16 A3003 RMK AO2 SLP153 T03060156
KJKL 242053Z AUTO 00000KT 10SM CLR 31/16 A3004 RMK AO2 SLP154 T03110161 56009
KJKL 241953Z AUTO VRB03KT 10SM FEW060 32/16 A3004 RMK AO2 SLP156 T03170161
KJKL 241853Z AUTO 00000KT 10SM FEW060 30/15 A3005 RMK AO2 SLP159 T03000150
KJKL 241753Z AUTO 00000KT 10SM BKN055 29/17 A3006 RMK AO2 SLP163 T02940172 10311 20217 58005
KJKL 241653Z AUTO VRB03KT 10SM SCT055 31/17 A3007 RMK AO2 SLP166 T03060172